createdAt,value
2023-10-06T00:00:36.208Z,100457.81
2023-10-06T00:03:46.373Z,100429.84
2023-10-06T00:06:51.215Z,100485.94
2023-10-06T00:09:56.524Z,100458.06
2023-10-06T00:13:01.438Z,100488.38
2023-10-06T00:16:09.378Z,100492.63
2023-10-06T00:19:25.001Z,100505.63
2023-10-06T00:22:31.156Z,100510.06
2023-10-06T00:25:38.347Z,100454.97
2023-10-06T00:28:42.421Z,100467.25
2023-10-06T00:31:49.927Z,100466.28
2023-10-06T00:34:57.559Z,100496.00
2023-10-06T00:38:14.904Z,100492.44
2023-10-06T00:41:22.221Z,100513.50
2023-10-06T00:44:26.692Z,100515.75
2023-10-06T00:47:41.161Z,100478.25
2023-10-06T00:50:45.915Z,100481.03
2023-10-06T00:53:54.215Z,100530.69
2023-10-06T00:57:00.283Z,100491.13
2023-10-06T01:00:17.902Z,100538.44
2023-10-06T01:03:27.523Z,100486.78
2023-10-06T01:06:38.342Z,100538.03
2023-10-06T01:09:58.715Z,100525.84
2023-10-06T01:13:14.442Z,100510.31
2023-10-06T01:16:28.549Z,100534.63
2023-10-06T01:19:35.274Z,100547.72
2023-10-06T01:22:46.463Z,100553.72
2023-10-06T01:25:57.881Z,100561.88
2023-10-06T01:29:06.124Z,100553.22
2023-10-06T01:32:11.892Z,100565.56
2023-10-06T01:35:39.654Z,100558.66
2023-10-06T01:38:45.753Z,100552.72
2023-10-06T01:41:52.198Z,100569.19
2023-10-06T01:45:00.982Z,100569.19
2023-10-06T01:48:15.570Z,100555.81
2023-10-06T01:51:19.469Z,100568.94
2023-10-06T01:54:29.905Z,100550.59
2023-10-06T01:57:34.629Z,100552.41
2023-10-06T02:00:50.034Z,100581.13
2023-10-06T02:03:55.428Z,100582.44
2023-10-06T02:07:00.725Z,100581.84
2023-10-06T02:10:06.006Z,100594.06
2023-10-06T02:13:10.088Z,100574.81
2023-10-06T02:16:19.819Z,100590.44
2023-10-06T02:19:24.483Z,100551.81
2023-10-06T02:22:29.761Z,100569.13
2023-10-06T02:25:34.135Z,100595.03
2023-10-06T02:28:46.084Z,100609.75
2023-10-06T02:31:54.678Z,100591.63
2023-10-06T02:35:01.530Z,100611.66
2023-10-06T02:38:08.754Z,100604.03
2023-10-06T02:41:27.944Z,100553.53
2023-10-06T02:44:32.441Z,100615.69
2023-10-06T02:47:38.574Z,100577.00
2023-10-06T02:50:48.376Z,100616.66
2023-10-06T02:53:52.975Z,100620.09
2023-10-06T02:56:58.023Z,100624.22
2023-10-06T03:00:22.279Z,100598.88
2023-10-06T03:03:29.934Z,100631.50
2023-10-06T03:06:38.553Z,100629.00
2023-10-06T03:09:50.207Z,100598.41
2023-10-06T03:12:55.288Z,100604.09
2023-10-06T03:16:00.051Z,100613.03
2023-10-06T03:19:05.129Z,100614.72
2023-10-06T03:22:12.250Z,100638.94
2023-10-06T03:25:18.829Z,100639.78
2023-10-06T03:28:38.501Z,100631.59
2023-10-06T03:31:49.340Z,100661.31
2023-10-06T03:35:19.692Z,100646.06
2023-10-06T03:38:24.077Z,100626.31
2023-10-06T03:41:33.050Z,100666.63
2023-10-06T03:44:37.844Z,100638.03
2023-10-06T03:47:42.252Z,100607.84
2023-10-06T03:50:47.460Z,100668.91
2023-10-06T03:53:51.528Z,100639.41
2023-10-06T03:56:56.105Z,100636.66
2023-10-06T04:00:00.503Z,100683.44
2023-10-06T04:03:06.767Z,100686.81
2023-10-06T04:06:17.452Z,100695.38
2023-10-06T04:09:30.343Z,100661.78
2023-10-06T04:12:36.176Z,100647.94
2023-10-06T04:15:56.255Z,100676.56
2023-10-06T04:19:05.674Z,100708.94
2023-10-06T04:22:10.620Z,100707.41
2023-10-06T04:25:19.310Z,100714.63
2023-10-06T04:28:27.230Z,100720.19
2023-10-06T04:31:31.837Z,100725.56
2023-10-06T04:34:39.199Z,100723.47
2023-10-06T04:37:49.553Z,100741.84
2023-10-06T04:40:54.043Z,100745.31
2023-10-06T04:44:04.178Z,100750.63
2023-10-06T04:47:12.226Z,100752.38
2023-10-06T04:50:18.147Z,100763.13
2023-10-06T04:53:22.777Z,100757.16
2023-10-06T04:56:31.886Z,100760.78
2023-10-06T04:59:38.889Z,100754.53
2023-10-06T05:02:52.247Z,100773.88
2023-10-06T05:05:59.732Z,100746.84
2023-10-06T05:09:05.095Z,100788.16
2023-10-06T05:12:09.230Z,100783.59
2023-10-06T05:15:24.366Z,100781.56
2023-10-06T05:18:37.183Z,100799.31
2023-10-06T05:21:44.653Z,100799.19
2023-10-06T05:24:49.578Z,100805.09
2023-10-06T05:28:18.553Z,100799.63
2023-10-06T05:31:26.832Z,100804.03
2023-10-06T05:34:31.722Z,100808.56
2023-10-06T05:37:36.312Z,100790.59
2023-10-06T05:40:40.751Z,100793.06
2023-10-06T05:43:45.380Z,100797.53
2023-10-06T05:46:49.332Z,100794.00
2023-10-06T05:49:55.860Z,100835.09
2023-10-06T05:53:03.566Z,100806.28
2023-10-06T05:56:11.439Z,100835.97
2023-10-06T05:59:21.109Z,100834.41
2023-10-06T06:02:29.373Z,100828.94
2023-10-06T06:05:38.021Z,100842.13
2023-10-06T06:08:49.691Z,100849.06
2023-10-06T06:11:54.409Z,100855.81
2023-10-06T06:14:58.470Z,100854.91
2023-10-06T06:18:15.614Z,100878.19
2023-10-06T06:21:28.258Z,100840.56
2023-10-06T06:24:34.776Z,100861.41
2023-10-06T06:27:39.634Z,100868.34
2023-10-06T06:30:44.048Z,100864.69
2023-10-06T06:33:58.815Z,100865.56
2023-10-06T06:37:03.059Z,100860.66
2023-10-06T06:40:13.049Z,100875.28
2023-10-06T06:43:19.472Z,100875.53
2023-10-06T06:46:26.572Z,100836.88
2023-10-06T06:49:30.763Z,100815.00
2023-10-06T06:52:36.929Z,100883.97
2023-10-06T06:55:43.063Z,100881.50
2023-10-06T06:58:50.739Z,100891.00
2023-10-06T07:01:55.068Z,100842.72
2023-10-06T07:04:59.514Z,100890.69
2023-10-06T07:08:07.274Z,100891.53
2023-10-06T07:11:15.502Z,100854.84
2023-10-06T07:14:19.495Z,100901.88
2023-10-06T07:17:25.141Z,100912.84
2023-10-06T07:20:32.455Z,100891.13
2023-10-06T07:23:55.031Z,100834.94
2023-10-06T07:26:59.063Z,100928.75
2023-10-06T07:30:06.778Z,100930.28
2023-10-06T07:33:11.229Z,100917.38
2023-10-06T07:36:25.697Z,100945.53
2023-10-06T07:39:30.086Z,100948.13
2023-10-06T07:42:35.657Z,100948.69
2023-10-06T07:45:40.311Z,100945.34
2023-10-06T07:48:47.890Z,100950.06
2023-10-06T07:51:51.854Z,100956.31
2023-10-06T07:55:00.583Z,100929.91
2023-10-06T07:58:09.839Z,100979.00
2023-10-06T08:01:24.277Z,100978.38
2023-10-06T08:04:28.761Z,100976.72
2023-10-06T08:07:35.547Z,100973.47
2023-10-06T08:10:40.302Z,100993.53
2023-10-06T08:13:45.014Z,100989.94
2023-10-06T08:16:52.140Z,100978.78
2023-10-06T08:19:57.645Z,101003.50
2023-10-06T08:23:07.283Z,101005.97
2023-10-06T08:26:15.936Z,100991.00
2023-10-06T08:29:20.117Z,100987.63
2023-10-06T08:32:26.052Z,100992.94
2023-10-06T08:35:30.492Z,101017.00
2023-10-06T08:38:35.029Z,101009.03
2023-10-06T08:41:47.545Z,101021.31
2023-10-06T08:44:51.954Z,100994.16
2023-10-06T08:48:03.273Z,101034.50
2023-10-06T08:51:16.501Z,101024.84
2023-10-06T08:54:21.627Z,100986.41
2023-10-06T08:57:27.437Z,101042.56
2023-10-06T09:00:33.672Z,101050.72
2023-10-06T09:03:40.907Z,101026.06
2023-10-06T09:07:09.220Z,101062.19
2023-10-06T09:10:20.347Z,101035.06
2023-10-06T09:13:24.441Z,101046.44
2023-10-06T09:16:50.367Z,101073.69
2023-10-06T09:19:54.420Z,101046.53
2023-10-06T09:23:00.740Z,101066.72
2023-10-06T09:26:09.274Z,101087.81
2023-10-06T09:29:14.131Z,101080.84
2023-10-06T09:32:23.230Z,101072.28
2023-10-06T09:35:30.484Z,101095.91
2023-10-06T09:38:35.304Z,101091.50
2023-10-06T09:41:40.533Z,101083.56
2023-10-06T09:44:47.275Z,101099.41
2023-10-06T09:47:52.619Z,101107.44
2023-10-06T09:50:57.139Z,101113.84
2023-10-06T09:54:04.281Z,101104.13
2023-10-06T09:57:12.517Z,101076.91
2023-10-06T10:00:25.896Z,101111.06
2023-10-06T10:03:44.036Z,101108.50
2023-10-06T10:06:49.673Z,101102.47
2023-10-06T10:09:55.370Z,101117.50
2023-10-06T10:13:09.811Z,101132.56
2023-10-06T10:16:14.535Z,101142.22
2023-10-06T10:19:25.664Z,101147.59
2023-10-06T10:22:30.828Z,101154.59
2023-10-06T10:25:38.269Z,101151.13
2023-10-06T10:28:42.509Z,101154.59
2023-10-06T10:32:05.030Z,101149.31
2023-10-06T10:35:15.596Z,101157.25
2023-10-06T10:38:19.781Z,101151.03
2023-10-06T10:41:29.221Z,101126.44
2023-10-06T10:44:35.640Z,101116.81
2023-10-06T10:47:39.986Z,101117.78
2023-10-06T10:51:08.773Z,101166.97
2023-10-06T10:54:14.200Z,101172.28
2023-10-06T10:57:23.340Z,101139.84
2023-10-06T11:00:28.191Z,101158.25
2023-10-06T11:03:35.662Z,101146.91
2023-10-06T11:07:26.274Z,101189.16
2023-10-06T11:11:01.011Z,101179.59
2023-10-06T11:14:06.705Z,101171.69
2023-10-06T11:17:14.456Z,101183.13
2023-10-06T11:20:24.289Z,101208.59
2023-10-06T11:23:44.119Z,101199.84
2023-10-06T11:26:49.050Z,101142.78
2023-10-06T11:29:54.656Z,101130.47
2023-10-06T11:32:59.697Z,101214.94
2023-10-06T11:36:06.461Z,101219.22
2023-10-06T11:39:10.688Z,101212.16
2023-10-06T11:42:34.628Z,101220.06
2023-10-06T11:45:39.259Z,101219.13
2023-10-06T11:48:44.235Z,101221.75
2023-10-06T11:51:51.569Z,101223.59
2023-10-06T11:54:58.508Z,101227.19
2023-10-06T11:58:06.754Z,101226.31
2023-10-06T12:01:40.012Z,101228.91
2023-10-06T12:04:45.585Z,101220.09
2023-10-06T12:07:52.835Z,101234.16
2023-10-06T12:11:06.043Z,101237.66
2023-10-06T12:14:13.507Z,101240.34
2023-10-06T12:17:18.386Z,101236.03
2023-10-06T12:20:22.593Z,101228.31
2023-10-06T12:23:26.473Z,101224.81
2023-10-06T12:26:33.484Z,101248.63
2023-10-06T12:29:38.388Z,101201.97
2023-10-06T12:32:47.902Z,101260.03
2023-10-06T12:35:54.845Z,101259.19
2023-10-06T12:39:01.713Z,101256.50
2023-10-06T12:42:07.086Z,101260.94
2023-10-06T12:45:15.557Z,101256.53
2023-10-06T12:48:19.861Z,101252.16
2023-10-06T12:51:30.271Z,101252.19
2023-10-06T12:54:34.145Z,101233.75
2023-10-06T12:57:40.835Z,101264.56
2023-10-06T13:00:45.576Z,101258.41
2023-10-06T13:03:52.819Z,101269.00
2023-10-06T13:07:01.061Z,101276.88
2023-10-06T13:10:09.167Z,101283.94
2023-10-06T13:13:14.351Z,101276.03
2023-10-06T13:16:22.154Z,101280.41
2023-10-06T13:19:26.567Z,101289.22
2023-10-06T13:22:32.058Z,101286.59
2023-10-06T13:25:41.895Z,101297.13
2023-10-06T13:28:47.377Z,101271.59
2023-10-06T13:31:51.694Z,101285.66
2023-10-06T13:34:55.615Z,101296.28
2023-10-06T13:38:00.373Z,101298.03
2023-10-06T13:41:06.457Z,101299.78
2023-10-06T13:44:13.532Z,101301.50
2023-10-06T13:47:19.773Z,101310.31
2023-10-06T13:50:33.017Z,101271.56
2023-10-06T13:53:38.543Z,101276.84
2023-10-06T13:56:43.856Z,101271.50
2023-10-06T13:59:49.085Z,101306.75
2023-10-06T14:02:54.116Z,101312.00
2023-10-06T14:06:01.608Z,101305.81
2023-10-06T14:09:07.971Z,101310.91
2023-10-06T14:12:15.990Z,101317.00
2023-10-06T14:15:24.183Z,101330.00
2023-10-06T14:18:31.813Z,101315.91
2023-10-06T14:21:36.471Z,101316.09
2023-10-06T14:24:41.381Z,101327.53
2023-10-06T14:27:45.975Z,101340.47
2023-10-06T14:30:52.809Z,101326.41
2023-10-06T14:34:20.586Z,101337.75
2023-10-06T14:37:41.297Z,101312.28
2023-10-06T14:41:13.952Z,101333.34
2023-10-06T14:44:37.150Z,101345.47
2023-10-06T14:47:43.550Z,101343.72
2023-10-06T14:50:57.825Z,101325.25
2023-10-06T14:54:03.833Z,101347.38
2023-10-06T14:57:09.082Z,101340.38
2023-10-06T15:00:16.007Z,101314.84
2023-10-06T15:03:21.159Z,101335.91
2023-10-06T15:06:28.068Z,101349.91
2023-10-06T15:09:35.490Z,101353.41
2023-10-06T15:12:41.373Z,101358.66
2023-10-06T15:15:46.346Z,101333.06
2023-10-06T15:18:50.908Z,101365.66
2023-10-06T15:21:56.864Z,101370.91
2023-10-06T15:25:01.468Z,101363.97
2023-10-06T15:28:09.748Z,101372.94
2023-10-06T15:31:19.010Z,101366.91
2023-10-06T15:34:23.372Z,101378.31
2023-10-06T15:37:27.902Z,101380.13
2023-10-06T15:40:33.554Z,101376.66
2023-10-06T15:43:43.265Z,101378.47
2023-10-06T15:46:51.871Z,101384.69
2023-10-06T15:50:06.169Z,101382.09
2023-10-06T15:53:15.043Z,101387.38
2023-10-06T15:56:21.568Z,101394.28
2023-10-06T15:59:26.928Z,101407.38
2023-10-06T16:02:32.040Z,101402.84
2023-10-06T16:05:38.440Z,101404.63
2023-10-06T16:08:45.273Z,101400.22
2023-10-06T16:11:50.210Z,101409.81
2023-10-06T16:14:54.402Z,101417.69
2023-10-06T16:17:59.161Z,101330.84
2023-10-06T16:21:04.339Z,101404.09
2023-10-06T16:24:09.090Z,101423.53
2023-10-06T16:27:13.835Z,101438.25
2023-10-06T16:30:19.295Z,101424.19
2023-10-06T16:33:23.198Z,101430.44
2023-10-06T16:36:27.737Z,101432.16
2023-10-06T16:39:32.076Z,101396.94
2023-10-06T16:42:36.962Z,101440.97
2023-10-06T16:45:40.855Z,101439.16
2023-10-06T16:48:48.499Z,101443.44
2023-10-06T16:51:53.359Z,101438.72
2023-10-06T16:54:58.879Z,101449.13
2023-10-06T16:58:03.878Z,101457.97
2023-10-06T17:01:11.921Z,101464.97
2023-10-06T17:04:20.704Z,101453.34
2023-10-06T17:07:25.566Z,101457.78
2023-10-06T17:10:30.981Z,101457.75
2023-10-06T17:13:39.289Z,101470.91
2023-10-06T17:16:43.329Z,101467.44
2023-10-06T17:19:48.103Z,101471.03
2023-10-06T17:22:52.492Z,101467.59
2023-10-06T17:25:57.163Z,101472.00
2023-10-06T17:29:01.062Z,101461.25
2023-10-06T17:32:06.738Z,101495.66
2023-10-06T17:35:11.206Z,101484.25
2023-10-06T17:38:15.974Z,101491.91
2023-10-06T17:41:20.110Z,101499.59
2023-10-06T17:44:25.327Z,101496.00
2023-10-06T17:47:30.068Z,101469.66
2023-10-06T17:50:34.807Z,101503.06
2023-10-06T17:53:39.533Z,101503.94
2023-10-06T17:56:44.166Z,101484.91
2023-10-06T17:59:48.064Z,101513.16
2023-10-06T18:02:53.481Z,101506.97
2023-10-06T18:05:58.343Z,101516.00
2023-10-06T18:09:03.317Z,101516.03
2023-10-06T18:12:24.197Z,101522.28
2023-10-06T18:15:31.377Z,101486.97
2023-10-06T18:18:35.436Z,101524.25
2023-10-06T18:21:40.989Z,101517.31
2023-10-06T18:24:45.744Z,101523.50
2023-10-06T18:27:50.607Z,101533.09
2023-10-06T18:30:55.330Z,101525.88
2023-10-06T18:33:59.980Z,101516.09
2023-10-06T18:37:04.270Z,101531.44
2023-10-06T18:40:09.143Z,101540.25
2023-10-06T18:43:12.960Z,101552.56
2023-10-06T18:46:21.091Z,101545.50
2023-10-06T18:49:25.402Z,101550.19
2023-10-06T18:52:29.889Z,101552.00
2023-10-06T18:55:34.610Z,101561.69
2023-10-06T18:58:38.815Z,101562.50
2023-10-06T19:01:43.304Z,101576.88
2023-10-06T19:04:47.625Z,101579.75
2023-10-06T19:07:52.419Z,101556.44
2023-10-06T19:10:59.693Z,101568.84
2023-10-06T19:14:09.534Z,101588.75
2023-10-06T19:17:14.163Z,101587.03
2023-10-06T19:20:19.062Z,101596.53
2023-10-06T19:23:23.024Z,101587.06
2023-10-06T19:26:28.297Z,101613.88
2023-10-06T19:29:35.735Z,101607.78
2023-10-06T19:32:41.748Z,101599.31
2023-10-06T19:35:46.143Z,101622.81
2023-10-06T19:38:52.330Z,101616.06
2023-10-06T19:42:00.018Z,101619.44
2023-10-06T19:45:07.343Z,101578.88
2023-10-06T19:48:11.501Z,101638.81
2023-10-06T19:51:19.941Z,101636.34
2023-10-06T19:54:27.551Z,101595.56
2023-10-06T19:57:32.806Z,101621.31
2023-10-06T20:00:39.824Z,101650.78
2023-10-06T20:03:45.163Z,101643.47
2023-10-06T20:06:49.212Z,101654.09
2023-10-06T20:09:54.040Z,101652.16
2023-10-06T20:13:02.120Z,101662.31
2023-10-06T20:16:18.410Z,101665.78
2023-10-06T20:19:25.086Z,101656.78
2023-10-06T20:22:29.198Z,101666.97
2023-10-06T20:25:34.508Z,101664.59
2023-10-06T20:28:38.747Z,101680.59
2023-10-06T20:31:42.806Z,101666.41
2023-10-06T20:34:48.487Z,101677.16
2023-10-06T20:37:52.756Z,101673.38
2023-10-06T20:40:57.095Z,101688.53
2023-10-06T20:44:02.252Z,101691.44
2023-10-06T20:47:06.902Z,101686.44
2023-10-06T20:50:14.832Z,101681.19
2023-10-06T20:53:19.426Z,101692.56
2023-10-06T20:56:24.141Z,101709.47
2023-10-06T20:59:30.343Z,101717.38
2023-10-06T21:02:38.975Z,101704.19
2023-10-06T21:05:43.231Z,101718.88
2023-10-06T21:08:48.678Z,101674.00
2023-10-06T21:11:53.090Z,101714.19
2023-10-06T21:14:58.444Z,101710.22
2023-10-06T21:18:03.917Z,101714.25
2023-10-06T21:21:08.754Z,101709.72
2023-10-06T21:24:12.631Z,101723.44
2023-10-06T21:27:18.657Z,101740.22
2023-10-06T21:30:22.686Z,101754.38
2023-10-06T21:33:26.992Z,101748.09
2023-10-06T21:36:32.448Z,101713.19
2023-10-06T21:39:39.071Z,101748.81
2023-10-06T21:42:43.688Z,101720.88
2023-10-06T21:45:48.137Z,101758.09
2023-10-06T21:48:52.271Z,101760.72
2023-10-06T21:51:56.606Z,101756.63
2023-10-06T21:55:00.959Z,101742.44
2023-10-06T21:58:09.212Z,101768.13
2023-10-06T22:01:21.346Z,101769.22
2023-10-06T22:04:27.604Z,101777.78
2023-10-06T22:07:31.859Z,101781.69
2023-10-06T22:10:37.357Z,101782.13
2023-10-06T22:13:47.572Z,101787.63
2023-10-06T22:16:52.526Z,101776.91
2023-10-06T22:19:57.227Z,101798.09
2023-10-06T22:23:01.615Z,101783.78
2023-10-06T22:26:06.710Z,101765.44
2023-10-06T22:29:10.524Z,101809.19
2023-10-06T22:32:16.378Z,101811.28
2023-10-06T22:35:24.028Z,101804.19
2023-10-06T22:38:28.394Z,101807.69
2023-10-06T22:41:32.782Z,101814.31
2023-10-06T22:44:38.189Z,101824.28
2023-10-06T22:47:42.538Z,101829.00
2023-10-06T22:50:46.677Z,101835.00
2023-10-06T22:53:50.843Z,101841.09
2023-10-06T22:56:55.032Z,101839.75
2023-10-06T23:00:00.882Z,101846.59
2023-10-06T23:03:07.555Z,101848.97
2023-10-06T23:06:14.905Z,101845.53
2023-10-06T23:12:53.019Z,101853.66
2023-10-06T23:16:05.734Z,101850.53
2023-10-06T23:25:05.768Z,101856.34
2023-10-06T23:28:41.298Z,101749.88
2023-10-06T23:31:58.519Z,101856.59
2023-10-06T23:35:02.121Z,101861.16
2023-10-06T23:38:13.724Z,101868.84
2023-10-06T23:41:19.650Z,101829.50
2023-10-06T23:44:24.120Z,101857.13
2023-10-06T23:47:31.079Z,101867.69
2023-10-06T23:50:35.818Z,101832.47
2023-10-06T23:53:40.093Z,101875.81
2023-10-06T23:56:44.915Z,101862.56
2023-10-06T23:59:52.848Z,101883.03
